TimeEST,TemperatureF,Dew PointF,Humidity,Sea Level PressureIn,VisibilityMPH,Wind Direction,Wind SpeedMPH,Gust SpeedMPH,PrecipitationIn,Events,Conditions,WindDirDegrees,DateUTC
12:53 AM,26.1,19.9,78,30.40,8.0,North,5.8,-,N/A,,Overcast,360,2013-01-15 05:53:00
1:53 AM,24.1,19.0,81,30.40,8.0,North,4.6,-,N/A,,Overcast,350,2013-01-15 06:53:00
2:13 AM,24.8,19.4,80,30.37,7.0,Calm,Calm,-,N/A,,Scattered Clouds,0,2013-01-15 07:13:00
3:53 AM,21.0,17.1,85,30.38,6.0,Calm,Calm,-,N/A,,Clear,0,2013-01-15 08:53:00
4:53 AM,24.1,19.0,81,30.39,7.0,North,5.8,-,N/A,,Clear,10,2013-01-15 09:53:00
5:39 AM,24.8,19.4,80,30.36,8.0,NNE,4.6,-,N/A,,Mostly Cloudy,20,2013-01-15 10:39:00
5:53 AM,26.1,19.9,78,30.40,9.0,NNE,6.9,-,N/A,,Overcast,20,2013-01-15 10:53:00
6:53 AM,26.1,19.9,78,30.40,10.0,NE,9.2,-,N/A,,Overcast,40,2013-01-15 11:53:00
7:53 AM,25.0,19.0,78,30.40,10.0,NE,4.6,-,N/A,,Overcast,40,2013-01-15 12:53:00
8:53 AM,26.1,19.0,75,30.42,10.0,NE,8.1,-,N/A,,Overcast,50,2013-01-15 13:53:00
9:53 AM,28.0,19.9,72,30.40,10.0,ENE,9.2,-,N/A,,Mostly Cloudy,60,2013-01-15 14:53:00
10:53 AM,30.0,21.9,72,30.41,10.0,ENE,10.4,-,N/A,,Mostly Cloudy,70,2013-01-15 15:53:00
11:53 AM,30.9,21.9,69,30.36,10.0,East,9.2,-,N/A,,Scattered Clouds,90,2013-01-15 16:53:00
12:17 PM,32.0,23.0,69,30.32,10.0,Variable,6.9,-,N/A,,Mostly Cloudy,0,2013-01-15 17:17:00
12:53 PM,32.0,23.0,69,30.32,10.0,NE,8.1,-,N/A,,Mostly Cloudy,50,2013-01-15 17:53:00
1:36 PM,30.2,23.0,75,30.28,10.0,NE,6.9,-,N/A,,Scattered Clouds,50,2013-01-15 18:36:00
1:53 PM,32.0,23.0,69,30.30,10.0,NE,8.1,-,N/A,,Scattered Clouds,40,2013-01-15 18:53:00
2:53 PM,32.0,21.9,66,30.27,10.0,ENE,10.4,-,N/A,,Clear,60,2013-01-15 19:53:00
3:53 PM,32.0,21.9,66,30.30,10.0,NNE,8.1,-,N/A,,Clear,30,2013-01-15 20:53:00
4:53 PM,33.1,23.0,66,30.29,10.0,ENE,5.8,-,N/A,,Clear,70,2013-01-15 21:53:00
5:53 PM,32.0,23.0,69,30.25,10.0,NE,4.6,-,N/A,,Clear,50,2013-01-15 22:53:00
6:53 PM,32.0,23.0,69,30.25,10.0,ENE,3.5,-,N/A,,Clear,70,2013-01-15 23:53:00
7:53 PM,32.0,24.1,73,30.20,10.0,East,6.9,-,N/A,,Clear,80,2013-01-16 00:53:00
8:53 PM,32.0,24.1,73,30.19,10.0,ENE,5.8,-,N/A,,Clear,70,2013-01-16 01:53:00
9:53 PM,32.0,24.1,73,30.17,10.0,NNE,3.5,-,N/A,,Overcast,30,2013-01-16 02:53:00
10:53 PM,32.0,24.1,73,30.14,10.0,NNE,5.8,-,N/A,,Overcast,30,2013-01-16 03:53:00
11:53 PM,32.0,24.1,73,30.13,10.0,NE,5.8,-,N/A,,Overcast,50,2013-01-16 04:53:00